Zeigler, Illinois
Current Conditions -  °F | °C
As of 12:46 PM on Friday 24 Oct 2014 (Local Time) from KMWA Reporting Station
Broken Clouds Broken Clouds  
Wind Chill: 68°   Ceiling: 2300
Heat Index: 68°   Visibility: 20mi
Dew Point: 57°   Wind: 6mph
Humidity: 68%   Direction: 310°NW
Pressure: 30.11"   Gusts: NA
Location:  37.9°N, 89.05°W
Report Text: KMWA 241746Z 31005KT 20SM BKN023 20/14 A3011
Loading
Personal Weather Stations






























Interactive Weather Map
Tropical Storm Tracking
New forecast layout! Learn more

10-Day Weather Forecast

Advertisements
Track Severe Weather on mobile